sensor_id;sensor_type;location;lat;lon;timestamp;pressure;altitude;pressure_sealevel;temperature;humidity
18821;BME280;9539;59.332;18.034;2022-08-01T00:01:49;100963.13;;;17.43;100.00
18821;BME280;9539;59.332;18.034;2022-08-01T00:04:20;100954.34;;;17.41;100.00
18821;BME280;9539;59.332;18.034;2022-08-01T00:06:47;100958.13;;;17.39;100.00
18821;BME280;9539;59.332;18.034;2022-08-01T00:09:13;100960.13;;;17.37;100.00
18821;BME280;9539;59.332;18.034;2022-08-01T00:11:40;100960.78;;;17.29;100.00
18821;BME280;9539;59.332;18.034;2022-08-01T00:14:08;100952.72;;;17.29;100.00
18821;BME280;9539;59.332;18.034;2022-08-01T00:16:38;100952.72;;;17.29;100.00
18821;BME280;9539;59.332;18.034;2022-08-01T00:19:05;100950.81;;;17.20;100.00
18821;BME280;9539;59.332;18.034;2022-08-01T00:21:33;100942.91;;;17.18;100.00
18821;BME280;9539;59.332;18.034;2022-08-01T00:23:59;100942.44;;;17.13;100.00
18821;BME280;9539;59.332;18.034;2022-08-01T00:26:26;100945.00;;;17.15;100.00
18821;BME280;9539;59.332;18.034;2022-08-01T00:28:53;100938.91;;;17.13;100.00
18821;BME280;9539;59.332;18.034;2022-08-01T00:31:20;100945.25;;;17.12;100.00
18821;BME280;9539;59.332;18.034;2022-08-01T00:33:47;100947.34;;;17.08;100.00
18821;BME280;9539;59.332;18.034;2022-08-01T00:36:13;100931.66;;;17.04;100.00
18821;BME280;9539;59.332;18.034;2022-08-01T00:38:41;100939.72;;;17.04;100.00
18821;BME280;9539;59.332;18.034;2022-08-01T00:41:08;100937.16;;;17.02;100.00
18821;BME280;9539;59.332;18.034;2022-08-01T00:43:38;100936.19;;;17.03;100.00
18821;BME280;9539;59.332;18.034;2022-08-01T00:46:04;100940.69;;;17.03;100.00
18821;BME280;9539;59.332;18.034;2022-08-01T00:48:33;100938.13;;;17.01;100.00
18821;BME280;9539;59.332;18.034;2022-08-01T00:51:00;100936.03;;;17.05;100.00
18821;BME280;9539;59.332;18.034;2022-08-01T00:53:28;100936.03;;;17.05;100.00
18821;BME280;9539;59.332;18.034;2022-08-01T00:55:59;100927.72;;;17.08;100.00
18821;BME280;9539;59.332;18.034;2022-08-01T00:58:29;100927.41;;;17.01;100.00
18821;BME280;9539;59.332;18.034;2022-08-01T01:01:00;100931.06;;;17.00;100.00
18821;BME280;9539;59.332;18.034;2022-08-01T01:03:29;100917.19;;;16.95;100.00
18821;BME280;9539;59.332;18.034;2022-08-01T01:06:14;100927.19;;;16.93;100.00
18821;BME280;9539;59.332;18.034;2022-08-01T01:08:58;100924.63;;;16.92;100.00
18821;BME280;9539;59.332;18.034;2022-08-01T01:11:34;100920.41;;;16.89;100.00
18821;BME280;9539;59.332;18.034;2022-08-01T01:14:09;100921.25;;;16.90;100.00
18821;BME280;9539;59.332;18.034;2022-08-01T01:16:40;100921.25;;;16.90;100.00
18821;BME280;9539;59.332;18.034;2022-08-01T01:19:11;100922.22;;;16.89;100.00
18821;BME280;9539;59.332;18.034;2022-08-01T01:22:12;100910.78;;;16.87;100.00
18821;BME280;9539;59.332;18.034;2022-08-01T01:24:55;100917.84;;;16.88;100.00
18821;BME280;9539;59.332;18.034;2022-08-01T01:27:36;100913.63;;;16.85;100.00
18821;BME280;9539;59.332;18.034;2022-08-01T01:30:07;100916.28;;;16.85;100.00
18821;BME280;9539;59.332;18.034;2022-08-01T01:32:36;100914.31;;;16.87;100.00
18821;BME280;9539;59.332;18.034;2022-08-01T01:35:08;100917.00;;;16.87;100.00
18821;BME280;9539;59.332;18.034;2022-08-01T01:37:38;100917.00;;;16.87;100.00
18821;BME280;9539;59.332;18.034;2022-08-01T01:40:07;100913.47;;;16.87;100.00
18821;BME280;9539;59.332;18.034;2022-08-01T01:42:36;100907.13;;;16.88;100.00
18821;BME280;9539;59.332;18.034;2022-08-01T01:45:06;100917.59;;;16.91;100.00
18821;BME280;9539;59.332;18.034;2022-08-01T01:47:37;100903.06;;;16.93;100.00
18821;BME280;9539;59.332;18.034;2022-08-01T01:50:05;100903.78;;;16.95;100.00
18821;BME280;9539;59.332;18.034;2022-08-01T01:52:35;100902.94;;;16.95;100.00
18821;BME280;9539;59.332;18.034;2022-08-01T01:55:06;100900.38;;;16.93;100.00
18821;BME280;9539;59.332;18.034;2022-08-01T01:57:40;100904.44;;;16.88;100.00
18821;BME280;9539;59.332;18.034;2022-08-01T02:00:10;100897.53;;;16.85;100.00
18821;BME280;9539;59.332;18.034;2022-08-01T02:02:40;100902.75;;;16.87;100.00
18821;BME280;9539;59.332;18.034;2022-08-01T02:05:10;100890.06;;;16.89;100.00
18821;BME280;9539;59.332;18.034;2022-08-01T02:07:37;100885.69;;;16.88;100.00
18821;BME280;9539;59.332;18.034;2022-08-01T02:10:06;100879.34;;;16.89;100.00
18821;BME280;9539;59.332;18.034;2022-08-01T02:12:36;100891.13;;;16.97;100.00
18821;BME280;9539;59.332;18.034;2022-08-01T02:15:05;100900.72;;;17.00;100.00
18821;BME280;9539;59.332;18.034;2022-08-01T02:17:37;100892.69;;;17.00;100.00
18821;BME280;9539;59.332;18.034;2022-08-01T02:20:06;100890.84;;;17.00;100.00
18821;BME280;9539;59.332;18.034;2022-08-01T02:22:41;100888.03;;;17.02;100.00
18821;BME280;9539;59.332;18.034;2022-08-01T02:25:16;100884.63;;;17.00;100.00
18821;BME280;9539;59.332;18.034;2022-08-01T02:27:51;100889.63;;;17.04;100.00
18821;BME280;9539;59.332;18.034;2022-08-01T02:30:21;100876.91;;;17.06;100.00
18821;BME280;9539;59.332;18.034;2022-08-01T02:32:59;100879.16;;;17.01;100.00
18821;BME280;9539;59.332;18.034;2022-08-01T02:35:33;100880.31;;;17.08;100.00
18821;BME280;9539;59.332;18.034;2022-08-01T02:38:03;100874.31;;;16.95;100.00
18821;BME280;9539;59.332;18.034;2022-08-01T02:40:32;100874.50;;;17.03;100.00
18821;BME280;9539;59.332;18.034;2022-08-01T02:43:04;100874.50;;;17.03;100.00
18821;BME280;9539;59.332;18.034;2022-08-01T02:45:37;100874.75;;;17.00;100.00
18821;BME280;9539;59.332;18.034;2022-08-01T02:48:11;100869.28;;;17.02;100.00
18821;BME280;9539;59.332;18.034;2022-08-01T02:50:41;100869.28;;;17.02;100.00
18821;BME280;9539;59.332;18.034;2022-08-01T02:53:10;100865.34;;;17.06;100.00
18821;BME280;9539;59.332;18.034;2022-08-01T02:55:39;100877.03;;;17.05;100.00
18821;BME280;9539;59.332;18.034;2022-08-01T02:58:07;100878.63;;;17.07;100.00
18821;BME280;9539;59.332;18.034;2022-08-01T03:00:39;100865.94;;;17.09;100.00
18821;BME280;9539;59.332;18.034;2022-08-01T03:03:09;100876.13;;;17.15;100.00
18821;BME280;9539;59.332;18.034;2022-08-01T03:05:41;100867.81;;;17.18;100.00
18821;BME280;9539;59.332;18.034;2022-08-01T03:08:09;100868.28;;;17.24;100.00
18821;BME280;9539;59.332;18.034;2022-08-01T03:10:39;100870.13;;;17.23;100.00
18821;BME280;9539;59.332;18.034;2022-08-01T03:13:09;100869.09;;;17.24;100.00
18821;BME280;9539;59.332;18.034;2022-08-01T03:15:40;100874.94;;;17.29;100.00
18821;BME280;9539;59.332;18.034;2022-08-01T03:18:10;100871.84;;;17.34;100.00
18821;BME280;9539;59.332;18.034;2022-08-01T03:20:38;100868.00;;;17.27;100.00
18821;BME280;9539;59.332;18.034;2022-08-01T03:23:08;100865.63;;;17.33;100.00
18821;BME280;9539;59.332;18.034;2022-08-01T03:25:39;100868.44;;;17.32;100.00
18821;BME280;9539;59.332;18.034;2022-08-01T03:28:12;100863.16;;;17.41;100.00
18821;BME280;9539;59.332;18.034;2022-08-01T03:30:40;100867.59;;;17.31;100.00
18821;BME280;9539;59.332;18.034;2022-08-01T03:33:10;100865.38;;;17.36;100.00
18821;BME280;9539;59.332;18.034;2022-08-01T03:35:40;100853.53;;;17.39;100.00
18821;BME280;9539;59.332;18.034;2022-08-01T03:38:10;100868.09;;;17.46;100.00
18821;BME280;9539;59.332;18.034;2022-08-01T03:40:43;100863.16;;;17.41;100.00
18821;BME280;9539;59.332;18.034;2022-08-01T03:43:16;100861.03;;;17.45;100.00
18821;BME280;9539;59.332;18.034;2022-08-01T03:45:48;100860.66;;;17.49;100.00
18821;BME280;9539;59.332;18.034;2022-08-01T03:48:24;100866.72;;;17.51;100.00
18821;BME280;9539;59.332;18.034;2022-08-01T03:51:01;100861.75;;;17.47;100.00
18821;BME280;9539;59.332;18.034;2022-08-01T03:53:33;100865.84;;;17.51;100.00
18821;BME280;9539;59.332;18.034;2022-08-01T03:56:04;100854.28;;;17.50;100.00
18821;BME280;9539;59.332;18.034;2022-08-01T03:58:34;100856.16;;;17.59;100.00
18821;BME280;9539;59.332;18.034;2022-08-01T04:01:05;100845.97;;;17.53;100.00
18821;BME280;9539;59.332;18.034;2022-08-01T04:03:33;100854.44;;;17.58;100.00
18821;BME280;9539;59.332;18.034;2022-08-01T04:06:03;100862.28;;;17.71;100.00
18821;BME280;9539;59.332;18.034;2022-08-01T04:08:34;100862.03;;;17.74;100.00
18821;BME280;9539;59.332;18.034;2022-08-01T04:11:02;100855.41;;;17.78;100.00
18821;BME280;9539;59.332;18.034;2022-08-01T04:13:32;100853.75;;;17.87;100.00
18821;BME280;9539;59.332;18.034;2022-08-01T04:16:01;100860.25;;;17.94;100.00
18821;BME280;9539;59.332;18.034;2022-08-01T04:18:28;100859.28;;;17.95;100.00
18821;BME280;9539;59.332;18.034;2022-08-01T04:20:59;100846.00;;;17.93;100.00
18821;BME280;9539;59.332;18.034;2022-08-01T04:23:27;100856.03;;;18.01;100.00
18821;BME280;9539;59.332;18.034;2022-08-01T04:25:57;100854.47;;;17.98;100.00
18821;BME280;9539;59.332;18.034;2022-08-01T04:28:28;100851.22;;;18.05;100.00
18821;BME280;9539;59.332;18.034;2022-08-01T04:31:00;100853.22;;;18.12;100.00
18821;BME280;9539;59.332;18.034;2022-08-01T04:33:29;100857.06;;;18.19;100.00
18821;BME280;9539;59.332;18.034;2022-08-01T04:36:03;100846.03;;;18.42;100.00
18821;BME280;9539;59.332;18.034;2022-08-01T04:38:34;100848.34;;;18.65;100.00
18821;BME280;9539;59.332;18.034;2022-08-01T04:41:02;100848.88;;;19.44;100.00
18821;BME280;9539;59.332;18.034;2022-08-01T04:43:31;100844.97;;;20.39;100.00
18821;BME280;9539;59.332;18.034;2022-08-01T04:45:58;100830.22;;;20.86;100.00
18821;BME280;9539;59.332;18.034;2022-08-01T04:48:25;100832.22;;;21.10;100.00
18821;BME280;9539;59.332;18.034;2022-08-01T04:50:53;100836.59;;;21.63;100.00
18821;BME280;9539;59.332;18.034;2022-08-01T04:53:24;100834.56;;;22.07;100.00
18821;BME280;9539;59.332;18.034;2022-08-01T04:55:52;100830.41;;;21.86;100.00
18821;BME280;9539;59.332;18.034;2022-08-01T04:58:18;100823.66;;;22.65;100.00
18821;BME280;9539;59.332;18.034;2022-08-01T05:00:45;100823.31;;;23.00;100.00
18821;BME280;9539;59.332;18.034;2022-08-01T05:03:12;100822.19;;;23.50;100.00
18821;BME280;9539;59.332;18.034;2022-08-01T05:05:42;100821.97;;;23.60;100.00
18821;BME280;9539;59.332;18.034;2022-08-01T05:08:08;100813.31;;;24.03;100.00
18821;BME280;9539;59.332;18.034;2022-08-01T05:10:36;100820.59;;;24.03;100.00
18821;BME280;9539;59.332;18.034;2022-08-01T05:13:03;100815.31;;;23.15;100.00
18821;BME280;9539;59.332;18.034;2022-08-01T05:15:31;100816.38;;;22.98;100.00
18821;BME280;9539;59.332;18.034;2022-08-01T05:17:58;100817.72;;;22.45;100.00
18821;BME280;9539;59.332;18.034;2022-08-01T05:20:27;100823.72;;;21.99;100.00
18821;BME280;9539;59.332;18.034;2022-08-01T05:22:54;100823.03;;;21.54;100.00
18821;BME280;9539;59.332;18.034;2022-08-01T05:25:20;100821.09;;;21.13;100.00
18821;BME280;9539;59.332;18.034;2022-08-01T05:27:51;100819.63;;;20.93;100.00
18821;BME280;9539;59.332;18.034;2022-08-01T05:30:18;100809.22;;;20.98;100.00
18821;BME280;9539;59.332;18.034;2022-08-01T05:32:47;100814.28;;;21.01;100.00
18821;BME280;9539;59.332;18.034;2022-08-01T05:35:14;100815.47;;;20.81;100.00
18821;BME280;9539;59.332;18.034;2022-08-01T05:37:43;100809.69;;;20.93;100.00
18821;BME280;9539;59.332;18.034;2022-08-01T05:40:12;100804.81;;;20.97;100.00
18821;BME280;9539;59.332;18.034;2022-08-01T05:42:39;100809.72;;;21.01;100.00
18821;BME280;9539;59.332;18.034;2022-08-01T05:45:08;100801.53;;;20.85;100.00
18821;BME280;9539;59.332;18.034;2022-08-01T05:47:35;100799.41;;;20.97;100.00
18821;BME280;9539;59.332;18.034;2022-08-01T05:50:02;100799.91;;;20.92;100.00
18821;BME280;9539;59.332;18.034;2022-08-01T05:52:29;100797.00;;;21.11;100.00
18821;BME280;9539;59.332;18.034;2022-08-01T05:54:56;100799.13;;;21.26;100.00
18821;BME280;9539;59.332;18.034;2022-08-01T05:57:22;100806.78;;;21.12;100.00
18821;BME280;9539;59.332;18.034;2022-08-01T05:59:49;100807.09;;;21.09;100.00
18821;BME280;9539;59.332;18.034;2022-08-01T06:02:17;100807.03;;;21.01;100.00
18821;BME280;9539;59.332;18.034;2022-08-01T06:04:44;100803.78;;;21.16;100.00
18821;BME280;9539;59.332;18.034;2022-08-01T06:07:10;100801.63;;;21.19;100.00
18821;BME280;9539;59.332;18.034;2022-08-01T06:09:37;100801.94;;;21.16;100.00
18821;BME280;9539;59.332;18.034;2022-08-01T06:12:04;100799.34;;;21.14;100.00
18821;BME280;9539;59.332;18.034;2022-08-01T06:14:31;100795.44;;;21.09;100.00
18821;BME280;9539;59.332;18.034;2022-08-01T06:16:58;100792.34;;;21.56;100.00
18821;BME280;9539;59.332;18.034;2022-08-01T06:19:26;100787.94;;;21.54;100.00
18821;BME280;9539;59.332;18.034;2022-08-01T06:21:54;100798.28;;;21.33;100.00
18821;BME280;9539;59.332;18.034;2022-08-01T06:24:21;100790.41;;;21.40;100.00
18821;BME280;9539;59.332;18.034;2022-08-01T06:26:52;100785.94;;;21.57;100.00
18821;BME280;9539;59.332;18.034;2022-08-01T06:29:18;100787.34;;;21.35;100.00
18821;BME280;9539;59.332;18.034;2022-08-01T06:31:45;100782.34;;;21.48;100.00
18821;BME280;9539;59.332;18.034;2022-08-01T06:34:12;100783.63;;;21.78;100.00
18821;BME280;9539;59.332;18.034;2022-08-01T06:36:41;100780.53;;;22.15;100.00
18821;BME280;9539;59.332;18.034;2022-08-01T06:39:08;100773.78;;;22.43;100.00
18821;BME280;9539;59.332;18.034;2022-08-01T06:41:35;100784.94;;;22.64;100.00
18821;BME280;9539;59.332;18.034;2022-08-01T06:44:02;100779.53;;;23.44;97.12
18821;BME280;9539;59.332;18.034;2022-08-01T06:46:32;100768.63;;;23.68;92.85
18821;BME280;9539;59.332;18.034;2022-08-01T06:49:01;100777.44;;;24.24;88.26
18821;BME280;9539;59.332;18.034;2022-08-01T06:51:28;100780.00;;;25.15;83.05
18821;BME280;9539;59.332;18.034;2022-08-01T06:53:56;100789.84;;;25.31;80.47
18821;BME280;9539;59.332;18.034;2022-08-01T06:56:23;100781.56;;;24.57;83.58
18821;BME280;9539;59.332;18.034;2022-08-01T06:58:52;100783.75;;;23.55;85.25
18821;BME280;9539;59.332;18.034;2022-08-01T07:01:21;100777.94;;;23.19;91.28
18821;BME280;9539;59.332;18.034;2022-08-01T07:03:48;100781.56;;;22.87;91.95
18821;BME280;9539;59.332;18.034;2022-08-01T07:06:15;100783.75;;;22.75;93.01
18821;BME280;9539;59.332;18.034;2022-08-01T07:08:42;100785.78;;;22.65;88.73
18821;BME280;9539;59.332;18.034;2022-08-01T07:11:13;100784.94;;;22.32;87.45
18821;BME280;9539;59.332;18.034;2022-08-01T07:13:39;100775.47;;;22.77;86.00
18821;BME280;9539;59.332;18.034;2022-08-01T07:16:10;100783.75;;;22.67;87.81
18821;BME280;9539;59.332;18.034;2022-08-01T07:18:39;100784.25;;;22.62;90.17
18821;BME280;9539;59.332;18.034;2022-08-01T07:21:09;100790.00;;;22.51;89.79
18821;BME280;9539;59.332;18.034;2022-08-01T07:23:35;100785.94;;;22.31;94.00
18821;BME280;9539;59.332;18.034;2022-08-01T07:26:03;100786.44;;;22.43;92.88
18821;BME280;9539;59.332;18.034;2022-08-01T07:28:33;100777.00;;;22.47;92.18
18821;BME280;9539;59.332;18.034;2022-08-01T07:31:02;100769.22;;;22.68;92.09
18821;BME280;9539;59.332;18.034;2022-08-01T07:33:29;100768.38;;;22.67;93.15
18821;BME280;9539;59.332;18.034;2022-08-01T07:35:56;100772.53;;;23.10;90.94
18821;BME280;9539;59.332;18.034;2022-08-01T07:38:22;100768.44;;;23.23;88.61
18821;BME280;9539;59.332;18.034;2022-08-01T07:40:49;100772.66;;;23.25;86.79
18821;BME280;9539;59.332;18.034;2022-08-01T07:43:16;100763.91;;;23.62;84.35
18821;BME280;9539;59.332;18.034;2022-08-01T07:45:44;100769.94;;;23.72;84.33
18821;BME280;9539;59.332;18.034;2022-08-01T07:48:10;100765.44;;;23.87;83.91
18821;BME280;9539;59.332;18.034;2022-08-01T07:50:37;100761.38;;;23.92;80.08
18821;BME280;9539;59.332;18.034;2022-08-01T07:53:04;100759.50;;;24.60;76.38
18821;BME280;9539;59.332;18.034;2022-08-01T07:55:33;100762.53;;;24.20;77.31
18821;BME280;9539;59.332;18.034;2022-08-01T07:58:03;100770.00;;;24.78;75.32
18821;BME280;9539;59.332;18.034;2022-08-01T08:00:30;100760.25;;;24.54;75.58
18821;BME280;9539;59.332;18.034;2022-08-01T08:03:00;100754.22;;;24.44;78.01
18821;BME280;9539;59.332;18.034;2022-08-01T08:05:29;100761.56;;;25.11;75.30
18821;BME280;9539;59.332;18.034;2022-08-01T08:07:55;100760.91;;;25.23;71.67
18821;BME280;9539;59.332;18.034;2022-08-01T08:10:22;100754.63;;;24.93;74.25
18821;BME280;9539;59.332;18.034;2022-08-01T08:12:49;100754.34;;;25.18;72.20
18821;BME280;9539;59.332;18.034;2022-08-01T08:15:15;100747.59;;;24.99;72.43
18821;BME280;9539;59.332;18.034;2022-08-01T08:17:42;100749.19;;;25.23;69.47
18821;BME280;9539;59.332;18.034;2022-08-01T08:20:13;100755.28;;;25.25;63.35
18821;BME280;9539;59.332;18.034;2022-08-01T08:22:39;100747.94;;;24.81;62.65
18821;BME280;9539;59.332;18.034;2022-08-01T08:25:08;100750.13;;;25.00;61.71
18821;BME280;9539;59.332;18.034;2022-08-01T08:27:36;100755.50;;;24.86;61.90
18821;BME280;9539;59.332;18.034;2022-08-01T08:30:05;100762.69;;;25.01;58.22
18821;BME280;9539;59.332;18.034;2022-08-01T08:32:33;100761.75;;;24.94;62.92
18821;BME280;9539;59.332;18.034;2022-08-01T08:34:59;100759.06;;;24.34;64.57
18821;BME280;9539;59.332;18.034;2022-08-01T08:37:28;100752.09;;;24.32;62.48
18821;BME280;9539;59.332;18.034;2022-08-01T08:39:56;100753.84;;;24.02;64.25
18821;BME280;9539;59.332;18.034;2022-08-01T08:42:25;100750.06;;;23.80;67.80
18821;BME280;9539;59.332;18.034;2022-08-01T08:44:55;100745.34;;;24.05;68.12
18821;BME280;9539;59.332;18.034;2022-08-01T08:47:22;100746.19;;;23.82;67.35
18821;BME280;9539;59.332;18.034;2022-08-01T08:49:52;100745.72;;;24.47;65.08
18821;BME280;9539;59.332;18.034;2022-08-01T08:52:20;100746.78;;;25.13;62.22
18821;BME280;9539;59.332;18.034;2022-08-01T08:54:50;100741.88;;;25.38;60.70
18821;BME280;9539;59.332;18.034;2022-08-01T08:57:19;100743.75;;;25.88;58.63
18821;BME280;9539;59.332;18.034;2022-08-01T08:59:47;100739.50;;;26.21;57.81
18821;BME280;9539;59.332;18.034;2022-08-01T09:02:17;100735.94;;;26.42;54.45
18821;BME280;9539;59.332;18.034;2022-08-01T09:04:48;100735.97;;;26.98;51.80
18821;BME280;9539;59.332;18.034;2022-08-01T09:07:18;100713.53;;;27.37;48.49
18821;BME280;9539;59.332;18.034;2022-08-01T09:09:44;100718.22;;;28.17;47.22
18821;BME280;9539;59.332;18.034;2022-08-01T09:12:19;100720.91;;;28.04;45.94
18821;BME280;9539;59.332;18.034;2022-08-01T09:14:49;100721.31;;;27.40;47.54
18821;BME280;9539;59.332;18.034;2022-08-01T09:17:21;100722.47;;;27.59;46.64
18821;BME280;9539;59.332;18.034;2022-08-01T09:19:53;100716.84;;;27.67;46.81
18821;BME280;9539;59.332;18.034;2022-08-01T09:22:23;100700.56;;;28.13;46.53
18821;BME280;9539;59.332;18.034;2022-08-01T09:25:00;100713.28;;;27.66;47.03
18821;BME280;9539;59.332;18.034;2022-08-01T09:27:32;100723.50;;;27.17;49.86
18821;BME280;9539;59.332;18.034;2022-08-01T09:30:10;100714.81;;;26.23;52.30
18821;BME280;9539;59.332;18.034;2022-08-01T09:32:43;100714.41;;;27.03;51.24
18821;BME280;9539;59.332;18.034;2022-08-01T09:35:26;100716.34;;;26.81;50.90
18821;BME280;9539;59.332;18.034;2022-08-01T09:38:11;100717.50;;;26.93;49.38
18821;BME280;9539;59.332;18.034;2022-08-01T09:40:46;100721.81;;;26.81;50.25
18821;BME280;9539;59.332;18.034;2022-08-01T09:43:14;100699.22;;;26.59;50.10
18821;BME280;9539;59.332;18.034;2022-08-01T09:45:41;100716.91;;;27.39;48.88
18821;BME280;9539;59.332;18.034;2022-08-01T09:48:09;100707.63;;;27.27;48.53
18821;BME280;9539;59.332;18.034;2022-08-01T09:50:40;100714.50;;;26.33;49.53
18821;BME280;9539;59.332;18.034;2022-08-01T09:53:07;100703.34;;;26.06;49.73
18821;BME280;9539;59.332;18.034;2022-08-01T09:55:38;100703.13;;;26.44;48.97
18821;BME280;9539;59.332;18.034;2022-08-01T09:58:08;100707.56;;;25.66;51.59
18821;BME280;9539;59.332;18.034;2022-08-01T10:00:39;100699.28;;;25.74;51.61
18821;BME280;9539;59.332;18.034;2022-08-01T10:03:22;100697.59;;;26.93;48.78
18821;BME280;9539;59.332;18.034;2022-08-01T10:05:52;100694.88;;;26.65;48.87
18821;BME280;9539;59.332;18.034;2022-08-01T10:08:18;100680.97;;;26.25;50.02
18821;BME280;9539;59.332;18.034;2022-08-01T10:11:07;100694.63;;;25.90;51.58
18821;BME280;9539;59.332;18.034;2022-08-01T10:13:36;100696.41;;;25.61;51.96
18821;BME280;9539;59.332;18.034;2022-08-01T10:16:08;100687.63;;;25.80;51.85
18821;BME280;9539;59.332;18.034;2022-08-01T10:18:37;100689.25;;;25.96;51.36
18821;BME280;9539;59.332;18.034;2022-08-01T10:21:06;100682.66;;;26.26;51.54
18821;BME280;9539;59.332;18.034;2022-08-01T10:23:34;100672.53;;;25.99;50.96
18821;BME280;9539;59.332;18.034;2022-08-01T10:26:05;100677.69;;;25.52;52.51
18821;BME280;9539;59.332;18.034;2022-08-01T10:28:35;100680.56;;;25.65;53.70
18821;BME280;9539;59.332;18.034;2022-08-01T10:31:09;100684.22;;;25.21;54.06
18821;BME280;9539;59.332;18.034;2022-08-01T10:33:36;100687.44;;;24.95;54.01
18821;BME280;9539;59.332;18.034;2022-08-01T10:36:05;100683.91;;;24.87;54.67
18821;BME280;9539;59.332;18.034;2022-08-01T10:38:32;100677.47;;;24.88;55.63
18821;BME280;9539;59.332;18.034;2022-08-01T10:41:02;100683.00;;;25.09;56.08
18821;BME280;9539;59.332;18.034;2022-08-01T10:43:29;100675.84;;;25.95;52.32
18821;BME280;9539;59.332;18.034;2022-08-01T10:45:55;100675.53;;;25.83;53.20
18821;BME280;9539;59.332;18.034;2022-08-01T10:48:28;100679.41;;;25.95;51.81
18821;BME280;9539;59.332;18.034;2022-08-01T10:51:00;100699.97;;;25.62;52.00
18821;BME280;9539;59.332;18.034;2022-08-01T10:53:35;100673.81;;;25.61;52.54
18821;BME280;9539;59.332;18.034;2022-08-01T10:56:03;100674.03;;;25.80;53.00
18821;BME280;9539;59.332;18.034;2022-08-01T10:58:36;100666.91;;;26.22;51.08
18821;BME280;9539;59.332;18.034;2022-08-01T11:01:21;100671.78;;;25.48;52.33
18821;BME280;9539;59.332;18.034;2022-08-01T11:04:14;100672.63;;;25.48;49.17
18821;BME280;9539;59.332;18.034;2022-08-01T11:07:03;100662.66;;;25.56;49.23
18821;BME280;9539;59.332;18.034;2022-08-01T11:09:41;100677.34;;;25.40;50.43
18821;BME280;9539;59.332;18.034;2022-08-01T11:12:12;100668.69;;;25.00;51.95
18821;BME280;9539;59.332;18.034;2022-08-01T11:17:50;100667.16;;;24.83;50.51
18821;BME280;9539;59.332;18.034;2022-08-01T11:20:22;100658.28;;;24.89;50.62
18821;BME280;9539;59.332;18.034;2022-08-01T11:23:22;100668.06;;;24.46;52.54
18821;BME280;9539;59.332;18.034;2022-08-01T11:26:12;100661.03;;;24.22;52.28
18821;BME280;9539;59.332;18.034;2022-08-01T11:28:40;100663.59;;;24.16;53.79
18821;BME280;9539;59.332;18.034;2022-08-01T11:31:28;100668.50;;;24.20;55.58
18821;BME280;9539;59.332;18.034;2022-08-01T11:33:55;100666.88;;;24.63;55.72
18821;BME280;9539;59.332;18.034;2022-08-01T11:36:23;100667.81;;;24.85;54.86
18821;BME280;9539;59.332;18.034;2022-08-01T11:39:11;100666.91;;;25.07;53.53
18821;BME280;9539;59.332;18.034;2022-08-01T11:41:38;100666.50;;;24.66;56.21
18821;BME280;9539;59.332;18.034;2022-08-01T11:44:06;100665.09;;;24.70;57.04
18821;BME280;9539;59.332;18.034;2022-08-01T11:46:57;100674.72;;;24.58;56.81
18821;BME280;9539;59.332;18.034;2022-08-01T11:49:44;100673.34;;;24.25;56.38
18821;BME280;9539;59.332;18.034;2022-08-01T11:52:14;100679.66;;;24.40;56.11
18821;BME280;9539;59.332;18.034;2022-08-01T11:54:43;100670.44;;;24.49;55.20
18821;BME280;9539;59.332;18.034;2022-08-01T11:57:12;100676.63;;;24.20;57.49
18821;BME280;9539;59.332;18.034;2022-08-01T11:59:41;100678.44;;;24.28;57.82
18821;BME280;9539;59.332;18.034;2022-08-01T12:02:24;100672.56;;;24.16;58.12
18821;BME280;9539;59.332;18.034;2022-08-01T12:04:56;100676.38;;;24.07;59.30
18821;BME280;9539;59.332;18.034;2022-08-01T12:07:26;100685.28;;;24.16;61.02
18821;BME280;9539;59.332;18.034;2022-08-01T12:09:58;100674.59;;;24.22;60.68
18821;BME280;9539;59.332;18.034;2022-08-01T12:12:26;100677.94;;;24.24;59.86
18821;BME280;9539;59.332;18.034;2022-08-01T12:14:58;100681.06;;;24.13;59.77
18821;BME280;9539;59.332;18.034;2022-08-01T12:17:29;100681.69;;;24.23;59.96
18821;BME280;9539;59.332;18.034;2022-08-01T12:19:57;100675.03;;;24.26;59.53
18821;BME280;9539;59.332;18.034;2022-08-01T12:22:28;100674.84;;;24.05;60.99
18821;BME280;9539;59.332;18.034;2022-08-01T12:25:05;100675.28;;;24.16;61.43
18821;BME280;9539;59.332;18.034;2022-08-01T12:27:36;100679.38;;;24.12;62.87
18821;BME280;9539;59.332;18.034;2022-08-01T12:30:05;100681.69;;;24.01;60.63
18821;BME280;9539;59.332;18.034;2022-08-01T12:32:33;100682.16;;;23.81;62.05
18821;BME280;9539;59.332;18.034;2022-08-01T12:35:03;100676.41;;;23.54;64.26
18821;BME280;9539;59.332;18.034;2022-08-01T12:37:32;100667.66;;;23.74;63.35
18821;BME280;9539;59.332;18.034;2022-08-01T12:40:02;100669.69;;;23.95;62.42
18821;BME280;9539;59.332;18.034;2022-08-01T12:42:36;100668.38;;;23.91;64.33
18821;BME280;9539;59.332;18.034;2022-08-01T12:45:03;100656.59;;;23.53;67.45
18821;BME280;9539;59.332;18.034;2022-08-01T12:47:35;100653.38;;;24.03;65.50
18821;BME280;9539;59.332;18.034;2022-08-01T12:50:03;100648.69;;;23.97;65.38
18821;BME280;9539;59.332;18.034;2022-08-01T12:52:34;100652.66;;;23.86;65.19
18821;BME280;9539;59.332;18.034;2022-08-01T12:55:13;100656.94;;;24.04;66.35
18821;BME280;9539;59.332;18.034;2022-08-01T12:57:45;100651.38;;;24.20;64.66
18821;BME280;9539;59.332;18.034;2022-08-01T13:00:20;100647.97;;;24.41;62.20
18821;BME280;9539;59.332;18.034;2022-08-01T13:02:50;100649.97;;;25.05;59.99
18821;BME280;9539;59.332;18.034;2022-08-01T13:05:24;100638.59;;;24.58;62.69